TimeCST,TemperatureF,Dew PointF,Humidity,Sea Level PressureIn,VisibilityMPH,Wind Direction,Wind SpeedMPH,Gust SpeedMPH,PrecipitationIn,Events,Conditions,WindDirDegrees,DateUTC
12:10 AM,50.0,48.2,94,30.23,10.0,NE,6.9,-,N/A,,Overcast,40,2012-11-16 06:10:00
12:41 AM,50.0,48.2,94,30.24,10.0,NE,6.9,-,N/A,,Overcast,40,2012-11-16 06:41:00
12:49 AM,50.0,48.2,94,30.23,10.0,NE,8.1,-,N/A,,Overcast,40,2012-11-16 06:49:00
12:53 AM,50.0,48.2,94,30.23,10.0,NE,6.9,-,N/A,,Overcast,50,2012-11-16 06:53:00
12:56 AM,50.0,48.2,94,30.23,10.0,NE,8.1,-,N/A,,Overcast,50,2012-11-16 06:56:00
1:55 AM,49.8,47.8,93,30.22,10.0,NE,6.9,-,N/A,,Overcast,50,2012-11-16 07:55:00
2:55 AM,49.6,47.8,94,30.22,10.0,ENE,5.8,-,N/A,,Overcast,60,2012-11-16 08:55:00
3:55 AM,49.5,48.0,95,30.22,10.0,ENE,5.8,-,N/A,,Overcast,60,2012-11-16 09:55:00
4:12 AM,50.0,48.2,94,30.21,10.0,NE,6.9,-,N/A,,Overcast,50,2012-11-16 10:12:00
4:25 AM,50.0,48.2,94,30.21,10.0,NE,5.8,-,N/A,,Overcast,50,2012-11-16 10:25:00
4:33 AM,50.0,48.2,94,30.22,10.0,ENE,4.6,-,N/A,,Overcast,60,2012-11-16 10:33:00
4:55 AM,49.1,48.0,96,30.21,10.0,Variable,5.8,-,N/A,,Overcast,0,2012-11-16 10:55:00
5:55 AM,48.7,48.0,97,30.23,10.0,NE,4.6,-,N/A,,Overcast,50,2012-11-16 11:55:00
6:51 AM,48.2,48.2,100,30.25,10.0,ENE,5.8,-,N/A,,Overcast,60,2012-11-16 12:51:00
6:55 AM,49.1,47.7,95,30.25,10.0,ENE,8.1,-,N/A,,Overcast,60,2012-11-16 12:55:00
7:01 AM,50.0,48.2,94,30.25,10.0,NE,6.9,-,N/A,,Overcast,50,2012-11-16 13:01:00
7:15 AM,50.0,48.2,94,30.26,10.0,Variable,5.8,-,N/A,,Overcast,0,2012-11-16 13:15:00
7:22 AM,50.0,48.2,94,30.26,10.0,NE,10.4,-,N/A,,Overcast,50,2012-11-16 13:22:00
7:55 AM,49.5,48.0,95,30.26,5.0,NE,6.9,-,N/A,,Overcast,50,2012-11-16 13:55:00
8:11 AM,50.0,48.2,94,30.25,4.0,Variable,6.9,-,N/A,,Overcast,0,2012-11-16 14:11:00
8:36 AM,50.0,48.2,94,30.27,4.0,ENE,8.1,-,N/A,,Overcast,60,2012-11-16 14:36:00
8:51 AM,50.0,48.2,94,30.27,6.0,ENE,6.9,-,N/A,,Light Drizzle,60,2012-11-16 14:51:00
8:55 AM,49.5,49.1,99,30.27,6.0,NE,8.1,-,0.00,,Light Drizzle,50,2012-11-16 14:55:00
9:01 AM,50.0,50.0,100,30.26,6.0,NE,8.1,-,N/A,,Overcast,50,2012-11-16 15:01:00
9:24 AM,50.0,50.0,100,30.26,10.0,NE,5.8,-,N/A,,Overcast,50,2012-11-16 15:24:00
9:38 AM,51.8,48.2,88,30.26,10.0,NE,8.1,-,N/A,,Overcast,40,2012-11-16 15:38:00
9:55 AM,51.1,48.7,92,30.26,10.0,NE,5.8,-,0.00,,Overcast,50,2012-11-16 15:55:00
10:55 AM,50.7,48.0,90,30.26,10.0,NE,8.1,-,N/A,,Overcast,50,2012-11-16 16:55:00
11:16 AM,51.8,48.2,88,30.25,10.0,ENE,9.2,-,N/A,,Overcast,60,2012-11-16 17:16:00
11:55 AM,52.0,48.4,88,30.25,10.0,Variable,5.8,-,N/A,,Overcast,0,2012-11-16 17:55:00
12:13 PM,51.8,50.0,94,30.24,10.0,Variable,5.8,-,N/A,,Overcast,0,2012-11-16 18:13:00
12:41 PM,51.8,48.2,88,30.24,10.0,ENE,5.8,-,N/A,,Overcast,60,2012-11-16 18:41:00
12:55 PM,52.9,49.1,87,30.23,10.0,NE,5.8,-,N/A,,Overcast,50,2012-11-16 18:55:00
1:55 PM,53.6,49.6,86,30.22,10.0,NE,9.2,-,N/A,,Overcast,40,2012-11-16 19:55:00
2:55 PM,53.8,50.0,87,30.21,10.0,NE,8.1,-,N/A,,Overcast,50,2012-11-16 20:55:00
3:55 PM,53.4,50.4,89,30.21,10.0,NE,6.9,-,N/A,,Overcast,40,2012-11-16 21:55:00
4:15 PM,53.6,50.0,88,30.21,10.0,NE,8.1,-,N/A,,Overcast,40,2012-11-16 22:15:00
4:41 PM,53.6,50.0,88,30.21,10.0,ENE,6.9,-,N/A,,Scattered Clouds,70,2012-11-16 22:41:00
4:55 PM,52.2,49.6,91,30.22,10.0,NE,4.6,-,N/A,,Partly Cloudy,50,2012-11-16 22:55:00
5:55 PM,50.7,49.6,96,30.23,10.0,Calm,Calm,-,N/A,,Clear,0,2012-11-16 23:55:00
6:55 PM,50.2,49.8,99,30.25,10.0,ENE,3.5,-,N/A,,Clear,60,2012-11-17 00:55:00
7:21 PM,50.0,50.0,100,30.25,10.0,ENE,3.5,-,N/A,,Light Drizzle,60,2012-11-17 01:21:00
7:32 PM,50.0,50.0,100,30.25,10.0,Variable,4.6,-,N/A,,Clear,0,2012-11-17 01:32:00
7:41 PM,50.0,50.0,100,30.25,10.0,NE,3.5,-,N/A,,Light Drizzle,50,2012-11-17 01:41:00
7:53 PM,50.0,50.0,100,30.26,10.0,ENE,3.5,-,N/A,,Clear,70,2012-11-17 01:53:00
8:55 PM,48.4,48.0,99,30.28,10.0,East,3.5,-,N/A,,Clear,80,2012-11-17 02:55:00
9:55 PM,47.3,47.1,99,30.28,10.0,Calm,Calm,-,N/A,,Clear,0,2012-11-17 03:55:00
10:55 PM,46.2,46.0,99,30.27,10.0,Calm,Calm,-,N/A,,Clear,0,2012-11-17 04:55:00
11:19 PM,44.6,42.8,93,30.27,8.0,Calm,Calm,-,N/A,,Clear,0,2012-11-17 05:19:00
11:28 PM,44.6,44.6,100,30.27,1.8,Calm,Calm,-,N/A,,Clear,0,2012-11-17 05:28:00
11:29 PM,44.6,44.6,100,30.27,1.8,Calm,Calm,-,N/A,,Clear,0,2012-11-17 05:29:00
11:32 PM,44.6,44.6,100,30.26,1.8,Calm,Calm,-,N/A,,Clear,0,2012-11-17 05:32:00
11:33 PM,44.6,44.6,100,30.26,2.0,Calm,Calm,-,N/A,,Clear,0,2012-11-17 05:33:00
11:38 PM,44.6,44.6,100,30.26,5.0,NNE,3.5,-,N/A,,Clear,30,2012-11-17 05:38:00
11:50 PM,46.4,44.6,93,30.26,9.0,NNE,3.5,-,N/A,,Clear,30,2012-11-17 05:50:00
11:55 PM,45.5,45.3,99,30.27,9.0,NNE,3.5,-,N/A,,Clear,20,2012-11-17 05:55:00